Weather observations for the past three days for
Fergus Falls Municipal Airport-Einar Mickel
Metric (Imperial)
Date Time (cdt) Wind (kph) Vis. (km) Weather Sky Cond. Temperature (ºC) Relative Humidity Wind Chill (°C) Heat Index (°C) Pressure Precipitation (cm)
Air Dwpt 6 hour altimeter (cm) sea level (mb) 1 hr 3 hr 6 hr
Max. Min.
06 06:15 SE 20 16.09 Mostly Cloudy FEW019 SCT025 BKN032 22 22 100% 76.23 0.0
06 05:55 SE 15 16.09 Overcast SCT025 BKN035 OVC080 22 22 100% 76.25 0.0
06 05:35 SE 15 16.09 Mostly Cloudy FEW024 SCT035 BKN100 22 22 100% 76.25 0.0
06 05:15 SE 15 16.09 Mostly Cloudy SCT024 BKN032 23 23 100% 76.25 0.0
06 04:55 SE 15 16.09 Overcast BKN022 BKN028 OVC033 23 23 100% 76.25 0.0
06 04:15 SE 15 16.09 A Few Clouds FEW023 22 22 100% 76.2 0.0
06 03:55 SE 15 16.09 Partly Cloudy SCT020 SCT025 22 22 100% 76.2 0.0
06 03:35 SE 13 16.09 Partly Cloudy SCT020 22 22 100% 76.2 0.0
06 03:15 SE 13 16.09 A Few Clouds FEW020 22 22 100% 76.17 0.0
06 02:55 SE 15 16.09 Fair CLR 22 22 100% 76.17 0.0
06 02:35 E 19 16.09 Fair CLR 22 22 100% 76.17 0.0
06 02:15 E 19 16.09 Fair CLR 22 22 100% 76.17 0.0
06 01:55 E 17 16.09 Fair CLR 22 22 100% 76.17 0.0
06 01:35 SE 17 16.09 Fair CLR 22 22 100% 76.2 0.0
06 01:15 E 17 16.09 Fair CLR 22 22 100% 76.23 0.0
06 00:55 E 19 16.09 Fair CLR 23 22 94% 76.23 0.0
06 00:35 E 17 16.09 Fair CLR 23 22 94% 76.23 0.0
06 00:15 E 19 16.09 Fair CLR 23 22 94% 76.25 0.0
05 23:55 SE 15 16.09 Fair CLR 23 22 94% 76.25 0.0
05 23:35 SE 15 16.09 Fair CLR 23 22 94% 76.25 0.0
05 23:15 E 13 16.09 Fair CLR 23 22 94% 76.25 0.0
05 22:55 E 15 16.09 Fair CLR 23 22 94% 76.25 0.0
05 22:35 SE 11 16.09 Fair CLR 24 22 89% 24 76.25 0.0
05 22:15 SE 13 16.09 Fair CLR 24 23 94% 23 76.25 0.0
05 21:55 SE 13 16.09 Fair CLR 24 23 94% 23 76.23 0.0
05 21:35 E 17 16.09 Fair CLR 24 23 94% 23 76.2 0.0
05 21:15 E 15 16.09 Fair CLR 24 23 94% 23 76.2 0.0
05 20:55 E 13 16.09 A Few Clouds FEW031 25 24 94% 26 76.2 0.0
05 20:35 E 15 16.09 Partly Cloudy SCT031 25 24 94% 26 76.17 0.0
05 20:15 E 13 16.09 A Few Clouds FEW033 24 24 100% 23 76.17 0.0
05 19:55 E 9 16.09 Fair CLR 25 24 94% 26 76.17 0.0
05 19:35 E 9 16.09 Fair CLR 25 24 94% 26 76.17 0.0
05 19:15 E 7 16.09 Fair CLR 26 22 79% 28 76.15 0.0
05 18:55 SE 15 G 28 16.09 Fair CLR 27 22 74% 29 76.07 0.0
05 18:35 E 22 16.09 Fair CLR 28 22 70% 31 76.05 0.0
05 18:15 E 19 G 30 16.09 Fair CLR 28 22 70% 31 76.07 0.0
05 17:55 E 19 G 31 16.09 Fair CLR 27 22 74% 29 76.07 0.0
05 17:35 E 26 G 37 16.09 Fair CLR 28 22 70% 31 76.05 0.0
05 17:15 E 28 G 39 16.09 Fair CLR 28 22 70% 31 76.05 0.0
05 16:55 E 33 16.09 Fair and Breezy CLR 28 22 70% 31 76.02 0.0
05 16:35 E 30 16.09 Fair CLR 28 22 70% 31 76.05 0.0
05 16:15 E 26 16.09 Fair CLR 29 23 70% 33 76.1 0.0
05 15:55 E 28 16.09 Fair CLR 28 22 70% 31 76.12 0.0
05 15:35 E 26 G 35 16.09 Fair CLR 28 22 70% 31 76.15 0.0
05 15:15 E 24 16.09 Fair CLR 28 22 70% 31 76.15 0.0
05 12:55 SE 20 16.09 Fair CLR 26 23 84% 28 76.2 0.0
05 12:35 SE 24 16.09 Fair CLR 25 23 89% 26 76.2 0.0
05 12:15 E 24 16.09 Fair CLR 25 22 83% 26 76.25 0.0
05 11:55 E 22 16.09 Fair CLR 24 22 89% 24 76.25 0.0
05 11:35 E 19 16.09 Fair CLR 24 22 89% 24 76.25 0.0
05 11:15 E 20 16.09 Fair CLR 24 23 94% 23 76.25 0.0
05 10:55 SE 20 16.09 Fair CLR 24 23 94% 23 76.25 0.0
05 10:35 E 19 16.09 A Few Clouds FEW009 24 22 89% 24 76.25 0.0
05 10:15 E 19 16.09 Mostly Cloudy SCT009 BKN012 23 22 94% 76.28 0.0
05 09:55 E 19 G 30 16.09 Overcast OVC011 22 21 94% 76.28 0.0
05 09:35 E 22 16.09 Mostly Cloudy BKN012 21 20 94% 76.25 0.0
05 09:15 E 20 16.09 Overcast BKN013 BKN029 OVC036 20 20 100% 76.25 0.0
05 08:55 E 26 16.09 Mostly Cloudy SCT014 BKN023 BKN029 19 19 100% 76.25 0.0
05 08:35 E 22 G 31 16.09 Mostly Cloudy SCT015 BKN023 BKN029 19 19 100% 76.25 0.0
05 08:15 E 19 16.09 Mostly Cloudy FEW017 BKN023 BKN030 19 19 100% 76.25 0.0
05 07:55 E 17 G 30 16.09 Mostly Cloudy BKN023 19 19 100% 76.23 0.0
05 07:35 E 20 16.09 A Few Clouds FEW023 19 19 100% 76.2 0.0
05 07:15 E 20 16.09 A Few Clouds FEW006 18 18 100% 76.15 0.0
05 06:55 E 17 14.48 Partly Cloudy SCT005 19 19 100% 76.17 0.0
05 06:35 E 11 14.48 Overcast OVC005 19 19 100% 76.2 0.0
05 06:15 E 13 14.48 Overcast OVC005 19 19 100% 76.17 0.0
05 05:55 E 13 12.87 Overcast OVC004 19 19 100% 76.17 0.0
05 05:35 E 19 12.87 Overcast OVC003 19 19 100% 76.17 0.0
05 05:15 E 19 9.66 Fog/Mist OVC003 19 19 100% 76.12 0.0
05 04:55 E 19 9.66 Fog/Mist OVC003 19 19 100% 76.12 0.0
05 04:35 E 19 G 28 9.66 Fog/Mist OVC003 19 19 100% 76.1 0.0
05 04:15 E 26 12.87 Overcast OVC003 19 19 100% 76.07 0.0
05 03:55 E 20 16.09 Overcast OVC004 19 19 100% 76.1 0.0
05 03:35 E 15 16.09 Overcast OVC004 19 19 100% 76.15 0.0
05 03:15 E 22 16.09 Overcast OVC004 19 19 100% 76.12 0.0
05 02:55 E 19 16.09 Partly Cloudy SCT005 19 19 100% 76.12 0.0
05 02:35 E 20 16.09 Partly Cloudy SCT005 19 19 100% 76.12 0.0
05 02:15 E 20 16.09 Overcast OVC005 19 19 100% 76.12 0.0
05 01:55 E 17 16.09 Partly Cloudy SCT007 20 20 100% 76.17 0.0
05 01:35 E 17 16.09 Fair CLR 20 20 100% 76.17 0.0
05 01:15 E 20 16.09 Fair CLR 20 20 100% 76.17 0.0
05 00:55 E 20 G 30 16.09 Fair CLR 20 20 100% 76.15 0.0
05 00:35 E 22 16.09 Fair CLR 21 21 100% 76.17 0.0
05 00:15 E 19 16.09 Fair CLR 20 20 100% 76.17 0.0
04 23:55 E 17 16.09 Fair CLR 21 21 100% 76.17 0.0
04 23:35 E 19 16.09 Fair CLR 21 21 100% 76.15 0.0
04 23:15 E 17 16.09 Fair CLR 21 21 100% 76.15 0.0
04 22:55 E 20 16.09 Fair CLR 22 22 100% 76.12 0.0
04 22:35 E 22 16.09 Fair CLR 22 22 100% 76.12 0.0
04 22:15 E 17 16.09 Fair CLR 23 22 94% 76.15 0.0
04 21:55 E 15 16.09 Fair CLR 23 22 94% 76.15 0.0
04 21:35 E 17 16.09 Fair CLR 23 22 94% 76.15 0.0
04 21:15 E 15 16.09 Fair CLR 24 23 94% 23 76.12 0.0
04 20:55 E 17 16.09 Fair CLR 24 23 94% 23 76.1 0.0
04 20:35 E 13 14.48 Fair CLR 24 23 94% 23 76.07 0.0
04 20:15 E 15 16.09 Fair CLR 25 22 83% 26 76.05 0.0
04 19:55 E 13 16.09 Fair CLR 25 22 83% 26 76.02 0.0
04 19:35 E 11 16.09 Fair CLR 26 21 74% 27 76.02 0.0
04 19:15 E 15 16.09 Fair CLR 27 21 70% 29 76.02 0.0
04 18:55 E 17 16.09 Fair CLR 28 21 66% 30 76.02 0.0
04 18:35 E 17 16.09 Fair CLR 29 22 66% 32 76.02 0.0
04 18:15 E 13 16.09 Fair CLR 29 21 62% 31 76.02 0.0
04 17:55 E 15 16.09 Fair CLR 29 21 62% 31 76.02 0.0
04 17:35 SE 15 16.09 Fair CLR 29 21 62% 31 76.02 0.0
04 17:15 E 15 16.09 Fair CLR 29 21 62% 31 76.02 0.0
04 16:55 E 11 G 20 16.09 Fair CLR 29 22 66% 32 76.02 0.0
04 16:35 NE 13 16.09 Fair CLR 29 21 62% 31 76.02 0.0
04 16:15 E 15 16.09 Fair CLR 29 21 62% 31 76.02 0.0
04 15:55 E 15 16.09 Fair CLR 29 21 62% 31 76.02 0.0
04 15:35 E 13 G 24 16.09 Fair CLR 29 21 62% 31 76.05 0.0
04 15:15 E 13 16.09 Fair CLR 29 21 62% 31 76.05 0.0
04 14:55 E 15 16.09 Fair CLR 29 22 66% 32 76.05 0.0
04 14:35 E 17 16.09 Fair CLR 28 22 70% 31 76.05 0.0
04 14:15 E 11 G 24 16.09 Fair CLR 28 22 70% 31 76.05 0.0
04 13:55 NE 13 16.09 Fair CLR 28 22 70% 31 76.05 0.0
04 13:35 E 9 16.09 Fair CLR 28 22 70% 31 76.05 0.0
04 13:15 E 13 16.09 Fair CLR 27 22 74% 29 76.05 0.0
04 12:55 E 13 16.09 Fair CLR 27 22 74% 29 76.05 0.0
04 12:35 E 17 G 26 16.09 Fair CLR 26 23 84% 28 76.05 0.0
04 12:15 Vrbl 11 16.09 Fair CLR 25 23 89% 26 76.07 0.0
04 11:55 E 13 16.09 A Few Clouds FEW013 25 23 89% 26 76.07 0.0
04 11:35 E 13 16.09 Partly Cloudy FEW008 SCT012 24 23 94% 23 76.07 0.0
04 11:15 E 11 16.09 Mostly Cloudy BKN007 BKN012 23 23 100% 76.05 0.0
04 10:55 NE 9 G 22 16.09 Overcast OVC006 22 22 100% 76.05 0.0
04 10:35 NE 15 G 26 14.48 Overcast OVC004 21 21 100% 76.02 0.0
04 10:15 NE 17 4.83 Fog/Mist OVC003 20 20 100% 76.02 0.0
04 09:55 N 15 2.01 Fog/Mist OVC002 19 19 100% 76.02 0.0
04 09:35 N 15 0.40 Drizzle Fog OVC002 19 19 100% 76.02 0.0
04 09:15 N 13 0.24 Heavy Drizzle Fog OVC002 19 19 100% 76.02 0.0
04 08:55 N 9 0.24 Fog OVC002 18 18 100% 76.02 0.0
04 08:35 Calm 0.24 Fog OVC002 18 18 100% 76.02 0.0
04 08:15 Calm 0.24 Fog OVC002 18 18 100% 76 0.0
04 07:55 NE 6 0.24 Fog OVC002 18 18 100% 75.97 0.0
04 07:35 NE 6 0.24 Fog OVC002 18 18 100% 75.95 0.0
04 07:15 NE 7 0.24 Fog OVC002 18 18 100% 75.92 0.0
04 06:55 NE 7 0.24 Fog OVC002 18 18 100% 75.92 0.0
04 06:35 E 7 0.40 Fog OVC002 18 18 100% 75.9 0.0
04 06:15 NE 13 1.21 Fog/Mist OVC002 18 18 100% 75.87 0.0
04 05:55 E 15 2.41 Fog/Mist OVC002 18 18 100% 75.84 0.0
04 05:35 E 7 9.66 Fog/Mist OVC003 18 18 100% 75.84 0.0
04 05:15 E 15 11.27 Overcast OVC003 18 18 100% 75.82 0.0
04 04:55 E 17 12.87 Overcast BKN003 OVC060 18 18 100% 75.82 0.0
04 04:15 E 17 16.09 Overcast OVC055 19 19 100% 75.79 0.0
04 03:55 E 17 16.09 Mostly Cloudy BKN047 19 19 100% 75.77 0.0
04 03:35 NE 17 16.09 Fair CLR 19 19 100% 75.77 0.0
04 03:15 NE 15 16.09 Fair CLR 19 19 100% 75.77 0.0
04 02:55 E 19 16.09 Fair CLR 20 20 100% 75.74 0.0
04 02:35 NE 19 16.09 Fair CLR 20 20 100% 75.74 0.0
04 02:15 NE 20 16.09 Fair CLR 20 20 100% 75.74 0.0
04 01:55 E 19 16.09 Fair CLR 20 20 100% 75.72 0.0
04 01:35 NE 17 G 30 16.09 Fair CLR 21 21 100% 75.72 0.0
04 01:15 NE 11 G 30 16.09 Fair CLR 21 21 100% 75.69 0.0
04 00:55 E 22 16.09 Fair CLR 21 21 100% 75.67 0.0
04 00:35 NE 20 16.09 Fair CLR 21 21 100% 75.64 0.0
04 00:15 E 22 16.09 Fair CLR 22 22 100% 75.62 0.0
03 23:55 NE 26 16.09 Fair CLR 22 22 100% 75.62 0.0
03 23:35 NE 22 16.09 Fair CLR 23 23 100% 75.59 0.0
03 23:15 NE 17 16.09 Fair CLR 24 24 100% 23 75.59 0.0
03 22:55 E 15 16.09 Fair CLR 24 24 100% 23 75.59 0.0
03 22:35 E 13 16.09 Fair CLR 23 23 100% 75.59 0.0
03 22:15 E 15 16.09 Fair CLR 23 23 100% 75.59 0.0
03 21:55 E 11 16.09 Fair CLR 23 23 100% 75.59 0.0
03 21:35 NE 9 16.09 Fair CLR 23 23 100% 75.57 0.0
03 21:15 E 13 16.09 Fair CLR 24 24 100% 23 75.54 0.0
03 20:55 E 13 16.09 Fair CLR 23 23 100% 75.57 0.0
03 20:35 E 17 16.09 Fair CLR 23 23 100% 75.54 0.0
03 20:15 E 17 G 26 16.09 Fair CLR 23 23 100% 75.51 0.0
03 19:55 NE 19 16.09 A Few Clouds FEW075 FEW090 23 23 100% 75.51 0.0 0.91
03 19:35 E 17 2.41 Heavy Rain Fog/Mist VV007 23 23 100% 75.57 0.0
03 19:15 N 20 G 31 2.01 Heavy Rain Fog/Mist FEW048 SCT060 SCT070 24 23 94% 23 75.59 0.0
03 18:55 NE 20 14.48 A Few Clouds FEW065 FEW075 FEW085 27 21 70% 29 75.49 0.0
03 18:35 NE 19 16.09 Fair CLR 28 21 66% 30 75.49 0.0
03 18:15 NE 17 16.09 Fair CLR 28 21 66% 30 75.46 0.0
03 17:55 NE 22 16.09 Partly Cloudy SCT050 SCT055 29 21 62% 31 75.49 0.0
03 17:35 N 28 16.09 Partly Cloudy FEW050 SCT120 32 21 52% 35 75.49 0.0
03 17:15 SE 13 16.09 Partly Cloudy SCT110 31 22 59% 35 75.49 0.0
03 16:55 SE 20 G 31 16.09 Fair CLR 31 22 59% 35 75.44 0.0
03 16:35 SE 26 16.09 Fair CLR 32 22 55% 36 75.39 0.0
03 16:15 SE 20 16.09 Fair CLR 32 22 55% 36 75.41 0.0
03 15:55 SE 19 16.09 Fair CLR 32 21 52% 35 75.44 0.0
03 15:35 SE 17 G 31 16.09 Fair CLR 32 21 52% 35 75.44 0.0
03 15:15 SE 17 G 30 16.09 Fair CLR 31 21 55% 34 75.46 0.0
03 14:55 SE 24 16.09 Fair CLR 32 21 52% 35 75.44 0.0
03 14:35 SE 19 G 35 16.09 Fair CLR 32 21 52% 35 75.46 0.0
03 14:15 SE 19 G 37 16.09 Fair CLR 31 21 55% 34 75.46 0.0
03 13:55 SE 24 16.09 Fair CLR 31 21 55% 34 75.46 0.0
03 13:35 SE 30 16.09 Fair CLR 31 21 55% 34 75.49 0.0
03 13:15 SE 20 G 33 16.09 Fair CLR 30 21 59% 33 75.51 0.0
03 12:55 S 24 G 35 16.09 Fair CLR 30 21 59% 33 75.51 0.0
03 12:35 SE 28 16.09 Fair CLR 29 21 62% 31 75.54 0.0
03 12:15 SE 22 G 35 16.09 Fair CLR 29 21 62% 31 75.57 0.0
03 11:55 SE 28 16.09 Fair CLR 29 21 62% 31 75.57 0.0
03 11:35 SE 24 16.09 Fair CLR 28 21 66% 30 75.59 0.0
03 11:15 SE 22 G 31 16.09 Fair CLR 26 21 74% 27 75.59 0.0
03 10:55 SE 20 16.09 Fair CLR 26 21 74% 27 75.59 0.0
03 10:35 E 24 16.09 Fair CLR 26 22 79% 28 75.59 0.0
03 10:15 E 26 16.09 Fair CLR 26 21 74% 27 75.59 0.0
03 09:55 E 26 G 37 16.09 Fair CLR 26 21 74% 27 75.59 0.0
03 09:35 E 19 16.09 Fair CLR 25 21 79% 26 75.62 0.0
03 09:15 Calm 16.09 Fair CLR 24 20 78% 24 75.62 0.0
03 08:55 E 17 14.48 Fair CLR 23 20 83% 75.64 0.0
03 08:35 E 22 G 31 16.09 Fair CLR 23 19 78% 75.64 0.0
03 08:15 E 22 G 35 16.09 Fair CLR 22 19 83% 75.64 0.0
03 07:55 E 22 16.09 Fair CLR 21 18 83% 75.67 0.0
03 07:35 E 24 G 33 16.09 Fair CLR 21 18 83% 75.67 0.0
03 07:15 E 24 16.09 Fair CLR 21 18 83% 75.67 0.0
03 06:35 E 22 16.09 Overcast OVC050 21 17 78% 75.69 0.0
Date Time (cdt) Wind (kph) Vis. (km) Weather Sky Cond. Air Dwpt Max. Min. Relative Humidity Wind Chill (°C) Heat Index (°C) altimeter (cm) sea level (mb) 1 hr 3 hr 6 hr
6 hour
Temperature (ºC) Pressure Precipitation (cm)